Time;durP1;ratioP1;P1;durP2;ratioP2;P2;SDS_P1;SDS_P2;PMS_P1;PMS_P2;Temp;Humidity;BMP_temperature;BMP_pressure;BME280_temperature;BME280_humidity;BME280_pressure;Samples;Min_cycle;Max_cycle;Signal;HPM_P1;HPM_P2
2023/08/19 00:01:27;;;;;;;;;;;24.80;99.90;;;;;;7339353;19;109296;-60
2023/08/19 00:03:54;;;;;;;;;;;24.80;99.90;;;;;;7336860;19;108585;-60
2023/08/19 00:06:35;;;;;;;;;;;24.80;99.90;;;;;;7337461;19;109657;-59
2023/08/19 00:09:04;;;;;;;;;;;24.90;99.90;;;;;;7337002;19;109119;-61
2023/08/19 00:11:31;;;;;;;;;;;24.90;99.90;;;;;;7343046;19;109392;-60
2023/08/19 00:13:59;;;;;;;;;;;24.90;99.90;;;;;;7337710;19;109194;-60
2023/08/19 00:16:26;;;;;;;;;;;24.90;99.90;;;;;;7337932;19;111152;-60
2023/08/19 00:18:54;;;;;;;;;;;24.90;99.90;;;;;;7339515;19;109784;-59
2023/08/19 00:21:22;;;;;;;;;;;24.90;99.90;;;;;;7336363;19;109401;-60
2023/08/19 00:23:50;;;;;;;;;;;24.90;99.90;;;;;;7338815;19;109039;-59
2023/08/19 00:26:17;;;;;;;;;;;24.90;99.90;;;;;;7335635;19;109056;-60
2023/08/19 00:28:44;;;;;;;;;;;24.90;99.90;;;;;;7337811;19;109597;-60
2023/08/19 00:31:11;;;;;;;;;;;24.90;99.90;;;;;;7335534;19;108854;-60
2023/08/19 00:33:39;;;;;;;;;;;24.90;99.90;;;;;;7342704;19;108655;-59
2023/08/19 00:36:06;;;;;;;;;;;24.90;99.90;;;;;;7335181;19;110238;-59
2023/08/19 00:38:33;;;;;;;;;;;24.90;99.90;;;;;;7337247;19;109261;-59
2023/08/19 00:41:03;;;;;;;;;;;25.00;99.90;;;;;;7336285;19;109110;-60
2023/08/19 00:43:31;;;;;;;;;;;24.90;99.90;;;;;;7334107;19;110804;-59
2023/08/19 00:45:58;;;;;;;;;;;25.00;99.90;;;;;;7337972;19;108666;-59
2023/08/19 00:48:25;;;;;;;;;;;24.90;99.90;;;;;;7335222;19;111064;-59
2023/08/19 00:50:53;;;;;;;;;;;24.90;99.90;;;;;;7338071;19;109380;-59
2023/08/19 00:53:20;;;;;;;;;;;25.00;99.90;;;;;;7335207;19;109528;-59
2023/08/19 00:55:48;;;;;;;;;;;24.90;99.90;;;;;;7343897;19;109220;-59
2023/08/19 00:58:15;;;;;;;;;;;24.90;99.90;;;;;;7336963;19;108581;-59
2023/08/19 01:00:42;;;;;;;;;;;24.90;99.90;;;;;;7336819;19;109271;-59
2023/08/19 01:03:10;;;;;;;;;;;25.00;99.90;;;;;;7335795;19;109725;-59
2023/08/19 01:05:46;;;;;;;;;;;24.90;99.90;;;;;;7333615;19;108572;-59
2023/08/19 01:08:17;;;;;;;;;;;24.90;99.90;;;;;;7338015;19;110417;-59
2023/08/19 01:11:10;;;;;;;;;;;24.90;99.90;;;;;;7333312;19;110315;-59
2023/08/19 01:13:44;;;;;;;;;;;24.90;99.90;;;;;;7335568;19;109006;-59
2023/08/19 01:16:20;;;;;;;;;;;24.90;99.90;;;;;;7343568;19;110068;-59
2023/08/19 01:18:48;;;;;;;;;;;24.90;99.90;;;;;;7337117;19;109876;-59
2023/08/19 01:21:15;;;;;;;;;;;24.90;99.90;;;;;;7331964;19;109372;-60
2023/08/19 01:23:43;;;;;;;;;;;24.90;99.90;;;;;;7337011;19;108414;-59
2023/08/19 01:26:10;;;;;;;;;;;24.90;99.90;;;;;;7336384;19;109258;-59
2023/08/19 01:28:38;;;;;;;;;;;24.90;99.90;;;;;;7334232;19;110078;-59
2023/08/19 01:31:05;;;;;;;;;;;24.80;99.90;;;;;;7335179;19;109094;-59
2023/08/19 01:33:32;;;;;;;;;;;24.90;99.90;;;;;;7335928;19;108959;-59
2023/08/19 01:36:17;;;;;;;;;;;24.90;99.90;;;;;;7333323;19;109725;-59
2023/08/19 01:38:56;;;;;;;;;;;24.90;99.90;;;;;;7341570;19;108463;-59
2023/08/19 01:41:23;;;;;;;;;;;24.80;99.90;;;;;;7332425;19;109252;-59
2023/08/19 01:43:50;;;;;;;;;;;24.80;99.90;;;;;;7335597;19;109477;-59
2023/08/19 01:46:18;;;;;;;;;;;24.90;99.90;;;;;;7333532;19;110508;-59
2023/08/19 01:48:45;;;;;;;;;;;24.90;99.90;;;;;;7334778;19;109808;-59
2023/08/19 01:51:12;;;;;;;;;;;24.90;99.90;;;;;;7328738;19;110910;-59
2023/08/19 01:53:39;;;;;;;;;;;24.80;99.90;;;;;;7330760;19;108857;-59
2023/08/19 01:56:06;;;;;;;;;;;24.80;99.90;;;;;;7333982;19;110276;-59
2023/08/19 01:58:33;;;;;;;;;;;24.80;99.90;;;;;;7331403;19;113976;-60
2023/08/19 02:01:00;;;;;;;;;;;24.90;99.90;;;;;;7338483;19;108907;-59
2023/08/19 02:03:27;;;;;;;;;;;24.80;99.90;;;;;;7332997;19;109711;-60
2023/08/19 02:05:54;;;;;;;;;;;24.80;99.90;;;;;;7334497;19;109082;-60
2023/08/19 02:08:22;;;;;;;;;;;24.80;99.90;;;;;;7330382;19;109128;-60
2023/08/19 02:10:49;;;;;;;;;;;24.80;99.90;;;;;;7333117;19;109788;-60
2023/08/19 02:13:16;;;;;;;;;;;24.80;99.90;;;;;;7335549;19;109329;-60
2023/08/19 02:15:43;;;;;;;;;;;24.80;99.90;;;;;;7332546;19;109098;-60
2023/08/19 02:18:10;;;;;;;;;;;24.80;99.90;;;;;;7332236;19;109311;-59
2023/08/19 02:20:38;;;;;;;;;;;24.80;99.90;;;;;;7332537;19;108522;-59
2023/08/19 02:23:05;;;;;;;;;;;24.80;99.90;;;;;;7339037;19;109149;-60
2023/08/19 02:25:32;;;;;;;;;;;24.80;99.90;;;;;;7330375;19;109812;-60
2023/08/19 02:27:59;;;;;;;;;;;24.80;99.90;;;;;;7332673;19;109178;-60
2023/08/19 02:30:26;;;;;;;;;;;24.70;99.90;;;;;;7333161;19;108593;-60
2023/08/19 02:32:53;;;;;;;;;;;24.70;99.90;;;;;;7330695;19;109685;-60
2023/08/19 02:35:20;;;;;;;;;;;24.70;99.90;;;;;;7329114;19;109148;-60
2023/08/19 02:37:47;;;;;;;;;;;24.70;99.90;;;;;;7332069;19;108623;-60
2023/08/19 02:40:14;;;;;;;;;;;24.70;99.90;;;;;;7333553;19;108904;-60
2023/08/19 02:42:42;;;;;;;;;;;24.70;99.90;;;;;;7330208;19;109113;-60
2023/08/19 02:45:09;;;;;;;;;;;24.60;99.90;;;;;;7338107;19;108772;-60
2023/08/19 02:47:37;;;;;;;;;;;24.60;99.90;;;;;;7330421;19;110232;-60
2023/08/19 02:50:05;;;;;;;;;;;24.70;99.90;;;;;;7331101;19;109055;-60
2023/08/19 02:52:32;;;;;;;;;;;24.60;99.90;;;;;;7330834;19;108522;-60
2023/08/19 02:54:59;;;;;;;;;;;24.60;99.90;;;;;;7329773;19;109146;-60
2023/08/19 02:57:26;;;;;;;;;;;24.60;99.90;;;;;;7328491;19;109980;-60
2023/08/19 02:59:55;;;;;;;;;;;24.60;99.90;;;;;;7334317;19;112619;-60
2023/08/19 03:02:22;;;;;;;;;;;24.60;99.90;;;;;;7327510;19;109638;-60
2023/08/19 03:04:50;;;;;;;;;;;24.60;99.90;;;;;;7335164;19;108791;-61
2023/08/19 03:07:17;;;;;;;;;;;24.60;99.90;;;;;;7342232;19;109162;-61
2023/08/19 03:09:44;;;;;;;;;;;24.60;99.90;;;;;;7340692;19;108785;-60
2023/08/19 03:12:12;;;;;;;;;;;24.50;99.90;;;;;;7338956;19;108695;-61
2023/08/19 03:14:39;;;;;;;;;;;24.60;99.90;;;;;;7334958;19;110349;-60
2023/08/19 03:17:06;;;;;;;;;;;24.60;99.90;;;;;;7337995;19;108970;-60
2023/08/19 03:19:33;;;;;;;;;;;24.50;99.90;;;;;;7340641;19;110023;-61
2023/08/19 03:22:00;;;;;;;;;;;24.60;99.90;;;;;;7333146;19;110734;-56
2023/08/19 03:24:27;;;;;;;;;;;24.50;99.90;;;;;;7340193;19;108288;-59
2023/08/19 03:26:54;;;;;;;;;;;24.60;99.90;;;;;;7341261;19;109861;-60
2023/08/19 03:29:23;;;;;;;;;;;24.60;99.90;;;;;;7337739;19;108355;-60
2023/08/19 03:31:50;;;;;;;;;;;24.50;99.90;;;;;;7337768;19;108527;-60
2023/08/19 03:34:17;;;;;;;;;;;24.60;99.90;;;;;;7338836;19;109442;-59
2023/08/19 03:36:44;;;;;;;;;;;24.50;99.90;;;;;;7336521;19;108743;-61
2023/08/19 03:39:11;;;;;;;;;;;24.50;99.90;;;;;;7339198;19;108926;-59
2023/08/19 03:41:38;;;;;;;;;;;24.50;99.90;;;;;;7333681;19;109500;-60
2023/08/19 03:44:05;;;;;;;;;;;24.50;99.90;;;;;;7338302;19;108704;-60
2023/08/19 03:46:32;;;;;;;;;;;24.50;99.90;;;;;;7338431;19;108927;-59
2023/08/19 03:48:59;;;;;;;;;;;24.50;99.90;;;;;;7341393;19;109839;-61
2023/08/19 03:51:27;;;;;;;;;;;24.50;99.90;;;;;;7337218;19;108735;-60
2023/08/19 03:53:55;;;;;;;;;;;24.50;99.90;;;;;;7334266;19;109523;-60
2023/08/19 03:56:22;;;;;;;;;;;24.50;99.90;;;;;;7337387;19;108931;-59
2023/08/19 03:58:49;;;;;;;;;;;24.40;99.90;;;;;;7336205;19;111497;-59
2023/08/19 04:01:16;;;;;;;;;;;24.50;99.90;;;;;;7337430;19;109172;-60
2023/08/19 04:03:43;;;;;;;;;;;24.50;99.90;;;;;;7335683;19;112213;-61
2023/08/19 04:06:11;;;;;;;;;;;24.50;99.90;;;;;;7339865;19;108543;-60
2023/08/19 04:08:39;;;;;;;;;;;24.40;99.90;;;;;;7335104;19;110254;-60
2023/08/19 04:11:06;;;;;;;;;;;24.50;99.90;;;;;;7342398;19;109234;-60
2023/08/19 04:13:34;;;;;;;;;;;24.50;99.90;;;;;;7331422;19;111413;-60
2023/08/19 04:16:05;;;;;;;;;;;24.40;99.90;;;;;;7336141;19;109504;-60
2023/08/19 04:18:32;;;;;;;;;;;24.40;99.90;;;;;;7337796;19;109216;-60
2023/08/19 04:21:03;;;;;;;;;;;24.50;99.90;;;;;;7332933;19;109407;-60
2023/08/19 04:23:31;;;;;;;;;;;24.40;99.90;;;;;;7330745;19;109396;-60
2023/08/19 04:25:58;;;;;;;;;;;24.40;99.90;;;;;;7334298;19;113024;-60
2023/08/19 04:28:26;;;;;;;;;;;24.40;99.90;;;;;;7330517;19;110323;-60
2023/08/19 04:31:02;;;;;;;;;;;24.50;99.90;;;;;;7331609;19;109478;-60
2023/08/19 04:33:30;;;;;;;;;;;24.50;99.90;;;;;;7333449;19;109644;-60
2023/08/19 04:35:57;;;;;;;;;;;24.40;99.90;;;;;;7334619;19;108952;-60
2023/08/19 04:38:24;;;;;;;;;;;24.50;99.90;;;;;;7332088;19;109543;-60
2023/08/19 04:40:51;;;;;;;;;;;24.40;99.90;;;;;;7333477;19;110167;-60
2023/08/19 04:43:19;;;;;;;;;;;24.40;99.90;;;;;;7333055;19;110223;-60
2023/08/19 04:45:46;;;;;;;;;;;24.40;99.90;;;;;;7333732;19;108943;-59
2023/08/19 04:48:13;;;;;;;;;;;24.40;99.90;;;;;;7333075;19;109872;-59
2023/08/19 04:50:41;;;;;;;;;;;24.40;99.90;;;;;;7334575;19;108554;-59
2023/08/19 04:53:09;;;;;;;;;;;24.40;99.90;;;;;;7332679;19;112579;-59
2023/08/19 04:55:36;;;;;;;;;;;24.40;99.90;;;;;;7339405;19;109400;-59
2023/08/19 04:58:03;;;;;;;;;;;24.40;99.90;;;;;;7334385;19;109424;-59
2023/08/19 05:00:31;;;;;;;;;;;24.40;99.90;;;;;;7335086;19;109473;-59
2023/08/19 05:02:58;;;;;;;;;;;24.40;99.90;;;;;;7335637;19;108694;-60
2023/08/19 05:05:25;;;;;;;;;;;24.40;99.90;;;;;;7331589;19;109508;-60
2023/08/19 05:07:52;;;;;;;;;;;24.40;99.90;;;;;;7335537;19;109783;-59
2023/08/19 05:10:20;;;;;;;;;;;24.40;99.90;;;;;;7335376;19;109401;-59
2023/08/19 05:12:47;;;;;;;;;;;24.40;99.90;;;;;;7335755;19;108313;-59
2023/08/19 05:15:14;;;;;;;;;;;24.40;99.90;;;;;;7334493;19;110050;-59
2023/08/19 05:17:41;;;;;;;;;;;24.40;99.90;;;;;;7340573;19;108623;-59
2023/08/19 05:20:12;;;;;;;;;;;24.40;99.90;;;;;;7333961;19;129575;-59
2023/08/19 05:22:39;;;;;;;;;;;24.40;99.90;;;;;;7335085;19;109818;-60
2023/08/19 05:25:08;;;;;;;;;;;24.40;99.90;;;;;;7334496;19;109379;-59
2023/08/19 05:27:35;;;;;;;;;;;24.40;99.90;;;;;;7334014;19;110091;-59
2023/08/19 05:30:04;;;;;;;;;;;24.40;99.90;;;;;;7335735;19;108955;-59
2023/08/19 05:32:31;;;;;;;;;;;24.40;99.90;;;;;;7331718;19;108959;-59
2023/08/19 05:34:58;;;;;;;;;;;24.50;99.90;;;;;;7336387;19;109136;-60
2023/08/19 05:37:25;;;;;;;;;;;24.40;99.90;;;;;;7330294;19;109201;-60
2023/08/19 05:39:53;;;;;;;;;;;24.50;99.90;;;;;;7329527;19;112440;-59
2023/08/19 05:42:20;;;;;;;;;;;24.50;99.90;;;;;;7334073;19;109550;-59
2023/08/19 05:44:47;;;;;;;;;;;24.50;99.90;;;;;;7332308;19;109822;-60
2023/08/19 05:47:15;;;;;;;;;;;24.50;99.90;;;;;;7332828;19;110179;-59
2023/08/19 05:49:42;;;;;;;;;;;24.50;99.90;;;;;;7332331;19;109619;-59
2023/08/19 05:52:09;;;;;;;;;;;24.50;99.90;;;;;;7332724;19;108812;-59
2023/08/19 05:54:36;;;;;;;;;;;24.50;99.90;;;;;;7330357;19;110478;-59
2023/08/19 05:57:03;;;;;;;;;;;24.60;99.90;;;;;;7334923;19;110279;-59
2023/08/19 05:59:30;;;;;;;;;;;24.60;99.90;;;;;;7339179;19;108594;-59
2023/08/19 06:01:58;;;;;;;;;;;24.60;99.90;;;;;;7328163;19;109797;-59
2023/08/19 06:04:25;;;;;;;;;;;24.60;99.90;;;;;;7333357;19;108513;-59
2023/08/19 06:06:52;;;;;;;;;;;24.60;99.90;;;;;;7333138;19;109760;-59
2023/08/19 06:09:21;;;;;;;;;;;24.60;99.90;;;;;;7334316;19;109734;-60
2023/08/19 06:11:49;;;;;;;;;;;24.70;99.90;;;;;;7332451;19;109045;-59
2023/08/19 06:14:17;;;;;;;;;;;24.70;99.90;;;;;;7335441;19;109305;-60
2023/08/19 06:16:44;;;;;;;;;;;24.70;99.90;;;;;;7331311;19;110275;-60
2023/08/19 06:19:11;;;;;;;;;;;24.80;99.90;;;;;;7335239;19;108309;-59
2023/08/19 06:21:39;;;;;;;;;;;24.80;99.90;;;;;;7338762;19;109762;-60
2023/08/19 06:24:07;;;;;;;;;;;24.90;99.90;;;;;;7335634;19;109283;-59
2023/08/19 06:26:34;;;;;;;;;;;25.10;99.90;;;;;;7332010;19;109070;-59
2023/08/19 06:29:01;;;;;;;;;;;25.20;99.90;;;;;;7335202;19;108923;-59
2023/08/19 06:31:28;;;;;;;;;;;25.30;99.90;;;;;;7331845;19;108691;-59
2023/08/19 06:33:55;;;;;;;;;;;25.40;99.90;;;;;;7333688;19;109261;-60
2023/08/19 06:36:23;;;;;;;;;;;25.50;99.90;;;;;;7333392;19;109533;-59
2023/08/19 06:38:58;;;;;;;;;;;25.50;99.90;;;;;;7334210;19;108500;-59
2023/08/19 06:41:25;;;;;;;;;;;25.60;99.90;;;;;;7340546;19;109408;-59
2023/08/19 06:43:53;;;;;;;;;;;25.60;99.90;;;;;;7347957;19;108500;-59
2023/08/19 06:46:20;;;;;;;;;;;25.70;99.90;;;;;;7342227;19;109588;-60
2023/08/19 06:48:48;;;;;;;;;;;25.70;99.90;;;;;;7342384;19;108635;-59
2023/08/19 06:51:16;;;;;;;;;;;25.70;99.90;;;;;;7340155;19;108953;-60
2023/08/19 06:53:43;;;;;;;;;;;25.80;99.90;;;;;;7341828;19;109102;-60
2023/08/19 06:56:20;;;;;;;;;;;25.80;99.90;;;;;;7339939;19;108904;-59
2023/08/19 06:58:54;;;;;;;;;;;25.80;99.90;;;;;;7342281;19;109851;-59
2023/08/19 07:01:22;;;;;;;;;;;25.80;99.90;;;;;;7340697;19;110541;-60
2023/08/19 07:03:53;;;;;;;;;;;25.90;99.90;;;;;;7337984;19;108615;-60
2023/08/19 07:06:21;;;;;;;;;;;26.00;99.90;;;;;;7343503;19;109521;-60
2023/08/19 07:08:49;;;;;;;;;;;26.00;99.90;;;;;;7339119;19;108966;-60
2023/08/19 07:11:17;;;;;;;;;;;26.10;99.90;;;;;;7339337;19;109275;-60
2023/08/19 07:13:44;;;;;;;;;;;26.10;99.90;;;;;;7340405;19;108760;-59
2023/08/19 07:16:12;;;;;;;;;;;26.20;99.90;;;;;;7340458;19;109730;-59
2023/08/19 07:18:46;;;;;;;;;;;26.20;99.90;;;;;;7341113;19;109118;-60
2023/08/19 07:21:15;;;;;;;;;;;26.30;99.90;;;;;;7340636;19;109055;-60
2023/08/19 07:23:44;;;;;;;;;;;26.30;99.90;;;;;;7339929;19;108989;-60
2023/08/19 07:26:12;;;;;;;;;;;26.30;99.90;;;;;;7343430;19;109364;-60
2023/08/19 07:28:39;;;;;;;;;;;26.30;99.90;;;;;;7340117;19;108366;-59
2023/08/19 07:31:09;;;;;;;;;;;26.40;99.90;;;;;;7338698;19;109014;-60
2023/08/19 07:33:36;;;;;;;;;;;26.40;99.90;;;;;;7338536;19;110180;-59
2023/08/19 07:36:03;;;;;;;;;;;26.50;99.90;;;;;;7342297;19;109129;-60
2023/08/19 07:38:30;;;;;;;;;;;26.50;99.90;;;;;;7340624;19;110655;-60
2023/08/19 07:40:58;;;;;;;;;;;26.50;99.90;;;;;;7338748;19;109461;-60
2023/08/19 07:43:25;;;;;;;;;;;26.50;99.90;;;;;;7340591;19;108558;-59
2023/08/19 07:45:52;;;;;;;;;;;26.50;99.90;;;;;;7340166;19;108355;-60
2023/08/19 07:48:19;;;;;;;;;;;26.40;99.90;;;;;;7345117;19;109188;-60
2023/08/19 07:50:46;;;;;;;;;;;26.40;99.90;;;;;;7338649;19;109052;-60
2023/08/19 07:53:14;;;;;;;;;;;26.40;99.90;;;;;;7337219;19;109399;-60
2023/08/19 07:55:41;;;;;;;;;;;26.40;99.90;;;;;;7336893;19;110169;-60
2023/08/19 07:58:09;;;;;;;;;;;26.40;99.90;;;;;;7340714;19;108752;-59
2023/08/19 08:00:36;;;;;;;;;;;26.40;99.90;;;;;;7339181;19;110311;-59
2023/08/19 08:03:04;;;;;;;;;;;26.50;99.90;;;;;;7338610;19;108618;-59
2023/08/19 08:05:31;;;;;;;;;;;26.60;99.90;;;;;;7339811;19;109208;-59
2023/08/19 08:07:58;;;;;;;;;;;26.60;99.90;;;;;;7335812;19;109171;-59
2023/08/19 08:10:26;;;;;;;;;;;26.60;99.90;;;;;;7343197;19;108611;-59
2023/08/19 08:12:53;;;;;;;;;;;26.70;99.90;;;;;;7338872;19;109133;-59
2023/08/19 08:15:20;;;;;;;;;;;26.70;99.90;;;;;;7337213;19;110033;-59
2023/08/19 08:17:47;;;;;;;;;;;26.80;99.90;;;;;;7337307;19;108526;-59
2023/08/19 08:20:14;;;;;;;;;;;26.90;99.90;;;;;;7333484;19;109147;-59
2023/08/19 08:22:41;;;;;;;;;;;26.90;99.90;;;;;;7338439;19;108641;-62
2023/08/19 08:25:11;;;;;;;;;;;26.90;99.90;;;;;;7330073;19;108521;-62
2023/08/19 08:27:38;;;;;;;;;;;27.00;99.90;;;;;;7335918;19;110511;-62
2023/08/19 08:30:06;;;;;;;;;;;27.10;99.90;;;;;;7335601;19;110156;-62
2023/08/19 08:32:33;;;;;;;;;;;27.10;99.90;;;;;;7343918;19;109169;-63
2023/08/19 08:35:01;;;;;;;;;;;27.10;99.90;;;;;;7336689;19;108865;-62
2023/08/19 08:37:28;;;;;;;;;;;27.10;99.90;;;;;;7336409;19;114358;-63
2023/08/19 08:39:55;;;;;;;;;;;27.10;99.90;;;;;;7334890;19;110492;-63
2023/08/19 08:42:23;;;;;;;;;;;27.20;99.90;;;;;;7337451;19;108798;-63
2023/08/19 08:44:50;;;;;;;;;;;27.10;99.90;;;;;;7337561;19;109134;-63
2023/08/19 08:47:19;;;;;;;;;;;27.10;99.90;;;;;;7340057;19;109519;-63
2023/08/19 08:49:46;;;;;;;;;;;27.20;99.90;;;;;;7337191;19;108336;-63
2023/08/19 08:52:13;;;;;;;;;;;27.20;99.90;;;;;;7337222;19;110073;-63
2023/08/19 08:54:42;;;;;;;;;;;27.20;99.90;;;;;;7342165;19;109614;-63
2023/08/19 08:57:09;;;;;;;;;;;27.20;99.90;;;;;;7336229;19;110728;-63
2023/08/19 08:59:36;;;;;;;;;;;27.30;99.90;;;;;;7337758;19;109389;-63
2023/08/19 09:02:05;;;;;;;;;;;27.30;99.90;;;;;;7333406;19;108346;-63
2023/08/19 09:04:32;;;;;;;;;;;27.40;99.90;;;;;;7336211;19;109202;-63
2023/08/19 09:07:09;;;;;;;;;;;27.50;99.90;;;;;;7337089;19;109097;-63
2023/08/19 09:09:39;;;;;;;;;;;27.70;99.90;;;;;;7336510;19;108599;-63
2023/08/19 09:12:10;;;;;;;;;;;27.80;99.90;;;;;;7339092;19;108507;-63
2023/08/19 09:14:41;;;;;;;;;;;28.00;99.90;;;;;;7336359;19;109972;-63
2023/08/19 09:17:12;;;;;;;;;;;27.90;99.90;;;;;;7344406;19;110006;-63
2023/08/19 09:19:39;;;;;;;;;;;27.90;99.90;;;;;;7337108;19;111548;-63
2023/08/19 09:22:10;;;;;;;;;;;28.00;99.90;;;;;;7338547;19;108937;-63
2023/08/19 09:24:37;;;;;;;;;;;27.90;99.90;;;;;;7335609;19;108812;-63
2023/08/19 09:27:04;;;;;;;;;;;27.90;99.90;;;;;;7337995;19;110614;-63
2023/08/19 09:29:32;;;;;;;;;;;27.90;99.90;;;;;;7335681;19;109351;-63
2023/08/19 09:32:00;;;;;;;;;;;27.90;99.90;;;;;;7335099;19;109033;-63
2023/08/19 09:34:27;;;;;;;;;;;28.00;99.90;;;;;;7335023;19;110314;-63
2023/08/19 09:36:55;;;;;;;;;;;28.00;99.90;;;;;;7341130;19;109159;-63
2023/08/19 09:39:25;;;;;;;;;;;28.10;99.90;;;;;;7333977;19;109737;-63
2023/08/19 09:41:58;;;;;;;;;;;28.20;99.90;;;;;;7334989;19;109012;-63
2023/08/19 09:44:29;;;;;;;;;;;28.30;99.90;;;;;;7332646;19;110003;-63
2023/08/19 09:46:56;;;;;;;;;;;28.40;99.90;;;;;;7335628;19;109345;-63
2023/08/19 09:49:23;;;;;;;;;;;28.40;99.90;;;;;;7333767;19;109701;-63
2023/08/19 09:51:57;;;;;;;;;;;28.30;99.90;;;;;;7334760;19;109095;-63
2023/08/19 09:54:24;;;;;;;;;;;28.30;99.90;;;;;;7335384;19;110616;-63
2023/08/19 09:56:53;;;;;;;;;;;28.30;99.90;;;;;;7336677;19;108469;-63
2023/08/19 09:59:21;;;;;;;;;;;28.30;99.90;;;;;;7339437;19;108525;-63
2023/08/19 10:01:49;;;;;;;;;;;28.20;99.90;;;;;;7336903;19;108673;-63
2023/08/19 10:04:16;;;;;;;;;;;28.20;99.90;;;;;;7334976;19;110997;-63
2023/08/19 10:06:45;;;;;;;;;;;28.20;99.90;;;;;;7336330;19;110129;-63
2023/08/19 10:09:15;;;;;;;;;;;28.10;99.90;;;;;;7336179;19;108403;-63
2023/08/19 10:11:43;;;;;;;;;;;28.10;99.90;;;;;;7334263;19;110212;-63
2023/08/19 10:14:11;;;;;;;;;;;28.10;99.90;;;;;;7333460;19;109693;-63
2023/08/19 10:16:41;;;;;;;;;;;28.10;99.90;;;;;;7331201;19;110337;-63
2023/08/19 10:19:11;;;;;;;;;;;28.10;99.90;;;;;;7335117;19;108973;-63
2023/08/19 10:21:42;;;;;;;;;;;28.10;99.90;;;;;;7340457;19;109164;-63
2023/08/19 10:24:09;;;;;;;;;;;28.10;99.90;;;;;;7334924;19;108909;-63
2023/08/19 10:26:37;;;;;;;;;;;28.10;99.90;;;;;;7333588;19;109777;-63
2023/08/19 10:29:05;;;;;;;;;;;28.10;99.90;;;;;;7334066;19;108500;-63
2023/08/19 10:31:34;;;;;;;;;;;28.10;99.90;;;;;;7333192;19;109174;-63
2023/08/19 10:34:13;;;;;;;;;;;28.10;99.90;;;;;;7334771;19;109212;-63
2023/08/19 10:36:40;;;;;;;;;;;28.10;99.90;;;;;;7333210;19;109757;-63
2023/08/19 10:39:16;;;;;;;;;;;28.00;99.90;;;;;;7334466;19;109368;-63
2023/08/19 10:41:44;;;;;;;;;;;28.00;99.90;;;;;;7331709;19;109428;-63
2023/08/19 10:44:12;;;;;;;;;;;27.90;99.90;;;;;;7339535;19;108438;-63
2023/08/19 10:46:40;;;;;;;;;;;27.90;99.90;;;;;;7332581;19;109178;-63
2023/08/19 10:49:11;;;;;;;;;;;27.80;99.90;;;;;;7333510;19;109319;-63
2023/08/19 10:51:44;;;;;;;;;;;27.70;99.90;;;;;;7333457;19;109616;-63
2023/08/19 10:54:12;;;;;;;;;;;27.60;99.90;;;;;;7332649;19;109055;-63
2023/08/19 10:57:11;;;;;;;;;;;27.60;99.90;;;;;;7331214;19;108520;-63
2023/08/19 10:59:40;;;;;;;;;;;27.50;99.90;;;;;;7330532;19;110044;-63
2023/08/19 11:02:08;;;;;;;;;;;27.40;99.90;;;;;;7333244;19;110207;-63
2023/08/19 11:04:40;;;;;;;;;;;27.30;99.90;;;;;;7331816;19;110529;-63
2023/08/19 11:07:07;;;;;;;;;;;27.20;99.90;;;;;;7338690;19;110540;-63
2023/08/19 11:09:35;;;;;;;;;;;27.20;99.90;;;;;;7332233;19;109519;-63
2023/08/19 11:12:02;;;;;;;;;;;27.20;99.90;;;;;;7333488;19;108313;-63
2023/08/19 11:14:29;;;;;;;;;;;27.10;99.90;;;;;;7331563;19;109453;-63
2023/08/19 11:16:57;;;;;;;;;;;27.10;99.90;;;;;;7333551;19;110576;-63
2023/08/19 11:19:24;;;;;;;;;;;27.10;99.90;;;;;;7332379;19;108865;-63
2023/08/19 11:21:52;;;;;;;;;;;27.10;99.90;;;;;;7333250;19;109508;-63
2023/08/19 11:24:19;;;;;;;;;;;27.10;99.90;;;;;;7332503;19;109724;-63
2023/08/19 11:26:48;;;;;;;;;;;27.20;99.90;;;;;;7338337;19;109280;-63
2023/08/19 11:29:16;;;;;;;;;;;27.20;99.90;;;;;;7346035;19;109804;-63
2023/08/19 11:31:43;;;;;;;;;;;27.20;99.90;;;;;;7339707;19;108706;-63
2023/08/19 11:34:11;;;;;;;;;;;27.30;99.90;;;;;;7340502;19;111002;-64
2023/08/19 11:36:40;;;;;;;;;;;27.40;99.90;;;;;;7334342;19;108493;-63
2023/08/19 11:39:07;;;;;;;;;;;27.50;99.90;;;;;;7336432;19;109087;-63
2023/08/19 11:41:38;;;;;;;;;;;27.70;99.90;;;;;;7335695;19;110240;-63
2023/08/19 11:44:06;;;;;;;;;;;27.70;99.90;;;;;;7332035;19;109013;-63
2023/08/19 11:46:35;;;;;;;;;;;27.80;99.90;;;;;;7336966;19;110366;-63
2023/08/19 11:49:06;;;;;;;;;;;27.90;99.90;;;;;;7343316;19;109143;-63
2023/08/19 11:51:36;;;;;;;;;;;27.90;99.90;;;;;;7337855;19;109065;-63
2023/08/19 11:54:04;;;;;;;;;;;27.90;99.90;;;;;;7338041;19;113046;-66
2023/08/19 11:56:48;;;;;;;;;;;27.90;99.90;;;;;;7335396;19;110348;-63
2023/08/19 11:59:15;;;;;;;;;;;27.90;99.90;;;;;;7336710;19;108362;-63
2023/08/19 12:01:45;;;;;;;;;;;27.80;99.90;;;;;;7337408;19;110086;-63
2023/08/19 12:04:18;;;;;;;;;;;27.70;99.90;;;;;;7335915;19;109857;-64
2023/08/19 12:06:46;;;;;;;;;;;27.60;99.90;;;;;;7338202;19;108608;-63
2023/08/19 12:09:17;;;;;;;;;;;27.50;99.90;;;;;;7335749;19;109429;-64
2023/08/19 12:11:48;;;;;;;;;;;27.50;99.90;;;;;;7342185;19;108779;-63
2023/08/19 12:14:15;;;;;;;;;;;27.40;99.90;;;;;;7334956;19;110513;-63
2023/08/19 12:16:42;;;;;;;;;;;27.40;99.90;;;;;;7337318;19;108885;-64
2023/08/19 12:19:09;;;;;;;;;;;27.30;99.90;;;;;;7338436;19;108696;-63
2023/08/19 12:21:36;;;;;;;;;;;27.30;99.90;;;;;;7336693;19;109097;-63
2023/08/19 12:24:04;;;;;;;;;;;27.30;99.90;;;;;;7336461;19;110819;-63
2023/08/19 12:26:31;;;;;;;;;;;27.20;99.90;;;;;;7335969;19;110257;-63
2023/08/19 12:28:58;;;;;;;;;;;27.20;99.90;;;;;;7336570;19;111303;-63
2023/08/19 12:31:26;;;;;;;;;;;27.10;99.90;;;;;;7337745;19;108870;-64
2023/08/19 12:33:53;;;;;;;;;;;27.00;99.90;;;;;;7342278;19;110884;-63
2023/08/19 12:36:20;;;;;;;;;;;26.90;99.90;;;;;;7335247;19;110421;-64
2023/08/19 12:38:47;;;;;;;;;;;26.80;99.90;;;;;;7338233;19;109440;-63
2023/08/19 12:41:14;;;;;;;;;;;26.80;99.90;;;;;;7335228;19;109229;-63
2023/08/19 12:43:42;;;;;;;;;;;26.70;99.90;;;;;;7335195;19;108883;-63
2023/08/19 12:46:09;;;;;;;;;;;26.60;99.90;;;;;;7337159;19;109182;-63
2023/08/19 12:48:37;;;;;;;;;;;26.60;99.90;;;;;;7329881;19;110037;-64
2023/08/19 12:51:05;;;;;;;;;;;26.50;99.90;;;;;;7329506;19;109804;-63
2023/08/19 12:53:32;;;;;;;;;;;26.80;99.90;;;;;;7331816;19;109858;-64
2023/08/19 12:55:59;;;;;;;;;;;27.10;99.90;;;;;;7335639;19;110554;-65
2023/08/19 12:58:26;;;;;;;;;;;27.40;99.90;;;;;;7330464;19;109996;-63
2023/08/19 13:00:53;;;;;;;;;;;27.50;99.90;;;;;;7332797;19;110840;-63
2023/08/19 13:03:20;;;;;;;;;;;27.50;99.90;;;;;;7328700;19;110220;-63
2023/08/19 13:05:48;;;;;;;;;;;27.50;99.90;;;;;;7332946;19;109485;-63
2023/08/19 13:08:15;;;;;;;;;;;27.50;99.90;;;;;;7332198;19;110406;-63
2023/08/19 13:10:42;;;;;;;;;;;27.50;99.90;;;;;;7333569;19;108894;-63
2023/08/19 13:13:09;;;;;;;;;;;27.50;99.90;;;;;;7333459;19;108375;-63
2023/08/19 13:15:36;;;;;;;;;;;27.40;99.90;;;;;;7334078;19;109784;-63
2023/08/19 13:18:03;;;;;;;;;;;27.40;99.90;;;;;;7341617;19;108652;-63
2023/08/19 13:20:31;;;;;;;;;;;27.40;99.90;;;;;;7332630;19;109316;-63
2023/08/19 13:22:58;;;;;;;;;;;27.40;99.90;;;;;;7332510;19;109011;-63
2023/08/19 13:25:27;;;;;;;;;;;27.40;99.90;;;;;;7328824;19;110436;-63
2023/08/19 13:27:54;;;;;;;;;;;27.30;99.90;;;;;;7333967;19;112323;-63
2023/08/19 13:30:22;;;;;;;;;;;27.30;99.90;;;;;;7333969;19;109017;-64
2023/08/19 13:32:49;;;;;;;;;;;27.30;99.90;;;;;;7333712;19;110668;-63
2023/08/19 13:35:16;;;;;;;;;;;27.30;99.90;;;;;;7337139;19;110195;-63
2023/08/19 13:37:43;;;;;;;;;;;27.40;99.90;;;;;;7332734;19;108540;-67
2023/08/19 13:40:11;;;;;;;;;;;27.50;99.90;;;;;;7338543;19;109463;-67
2023/08/19 13:42:38;;;;;;;;;;;27.50;99.90;;;;;;7336088;19;110283;-63
2023/08/19 13:45:07;;;;;;;;;;;27.70;99.90;;;;;;7332129;19;108709;-63
2023/08/19 13:47:34;;;;;;;;;;;27.80;99.90;;;;;;7333839;19;109577;-64
2023/08/19 13:50:05;;;;;;;;;;;27.90;99.90;;;;;;7332236;19;109851;-63
2023/08/19 13:52:36;;;;;;;;;;;28.00;99.90;;;;;;7335110;19;108978;-65
2023/08/19 13:55:06;;;;;;;;;;;28.10;99.90;;;;;;7332130;19;111182;-63
2023/08/19 13:57:33;;;;;;;;;;;28.20;99.90;;;;;;7333848;19;109578;-63
2023/08/19 14:00:03;;;;;;;;;;;28.40;99.90;;;;;;7340518;19;108742;-63
2023/08/19 14:02:30;;;;;;;;;;;28.60;99.90;;;;;;7332619;19;108960;-63
2023/08/19 14:04:57;;;;;;;;;;;28.90;99.90;;;;;;7335578;19;109318;-63
2023/08/19 14:07:24;;;;;;;;;;;29.10;99.90;;;;;;7335028;19;113881;-63
2023/08/19 14:09:51;;;;;;;;;;;29.30;99.90;;;;;;7333675;19;109026;-63